Central Oregon RPC :: LAKEVIEW B

liberation: 2020-08-15  07:15     latitude: 42.271117     longitude: -120.354933 243 birds
# LOFT PRING MILES ARRIVAL SPEED ToWin
1 ROCKY TOP AU20-CORP-4476 140.998 2020-08-15 10:08:28.451 1430.513 00:00:00
2 ROCKY TOP AU20-ARPU-28101 140.998 2020-08-15 10:08:33.041 1429.882 00:00:05
3 ROCKY TOP AU20-PNW-2503 140.998 2020-08-15 10:08:36.663 1429.385 00:00:08
4 ROCKY TOP AU20-CORP-4403 140.998 2020-08-15 10:08:40.195 1428.901 00:00:12
5 ROCKY TOP AU20-CORP-4432 140.998 2020-08-15 10:08:43.854 1428.399 00:00:15
6 ROCKY TOP AU20-CORP-4416 140.998 2020-08-15 10:08:44.858 1428.262 00:00:16
7 ROCKY TOP AU20-CORP-4474 140.998 2020-08-15 10:08:45.369 1428.192 00:00:17
8 ROCKY TOP AU20-CORP-4404 140.998 2020-08-15 10:08:46.104 1428.091 00:00:18
9 ROCKY TOP AU20-CORP-4461 140.998 2020-08-15 10:08:46.476 1428.040 00:00:18
10 ROCKY TOP AU20-CORP-4462 140.998 2020-08-15 10:08:46.610 1428.022 00:00:18
11 ROCKY TOP AU20-TAC-2753 140.998 2020-08-15 10:08:46.746 1428.003 00:00:18
12 ROCKY TOP AU20-ARPU-28128 140.998 2020-08-15 10:08:47.582 1427.889 00:00:19
13 ROCKY TOP AU20-CORP-4445 140.998 2020-08-15 10:08:48.300 1427.790 00:00:20
14 ROCKY TOP AU20-CORP-4405 140.998 2020-08-15 10:08:49.306 1427.652 00:00:21
15 ROCKY TOP AU20-ARPU-28107 140.998 2020-08-15 10:08:58.224 1426.433 00:00:30
16 ROCKY TOP AU20-CORP-4401 140.998 2020-08-15 10:09:00.023 1426.187 00:00:32
17 ROCKY TOP AU20-CORP-4471 140.998 2020-08-15 10:09:06.975 1425.238 00:00:39
18 STEELE LOFT AU20-BORD-20054 148.476 2020-08-15 10:20:24.743 1409.387 00:02:44
19 STEELE LOFT AU20-CORP-5083 148.476 2020-08-15 10:20:43.996 1406.952 00:03:04
20 ROCKY TOP AU20-CORP-4454 140.998 2020-08-15 10:14:07.726 1385.356 00:05:39
21 ROCKY TOP AU20-TAC-2754 140.998 2020-08-15 10:14:08.345 1385.276 00:05:40
22 ROCKY TOP AU20-TAC-2787 140.998 2020-08-15 10:14:08.471 1385.260 00:05:40
23 ROCKY TOP AU20-CORP-4442 140.998 2020-08-15 10:14:13.135 1384.659 00:05:45
24 RUETER FAMILY LOFT AU20-CORP-4517 174.665 2020-08-15 10:59:09.389 1371.410 00:09:16
25 ROCKY TOP AU20-CORP-4452 140.998 2020-08-15 10:16:41.727 1365.786 00:08:13
26 ROCKY TOP AU20-GSC-1299 140.998 2020-08-15 10:16:43.497 1365.564 00:08:15
27 ROCKY TOP AU20-CORP-4455 140.998 2020-08-15 10:16:45.475 1365.316 00:08:17
28 STEELE LOFT AU20-CORP-5085 148.476 2020-08-15 10:27:16.329 1359.104 00:09:36
29 TOPIGEONUSA AU20-CORP-4373 148.159 2020-08-15 10:26:57.430 1358.423 00:09:40
30 ROCKY TOP AU20-CORP-4456 140.998 2020-08-15 10:18:04.942 1355.440 00:09:36
31 ROCKY TOP AU20-CORP-4411 140.998 2020-08-15 10:18:05.072 1355.423 00:09:37
32 ROCKY TOP AU20-CORP-4477 140.998 2020-08-15 10:18:05.976 1355.312 00:09:38
33 ROCKY TOP AU20-CORP-4463 140.998 2020-08-15 10:18:07.305 1355.148 00:09:39
34 STEELE LOFT AU20-CORP-5006 148.476 2020-08-15 10:27:52.974 1354.801 00:10:13
35 STEELE LOFT AU20-CORP-5080 148.476 2020-08-15 10:27:53.543 1354.734 00:10:13
36 ROCKY TOP AU20-CORP-4402 140.998 2020-08-15 10:18:11.629 1354.615 00:09:43
37 STEELE LOFT IF20-EART-0055 148.476 2020-08-15 10:27:55.270 1354.532 00:10:15
38 STEELE LOFT AU20-JEDD-14784 148.476 2020-08-15 10:27:55.665 1354.486 00:10:15
39 STEELE LOFT AU20-CORP-5043 148.476 2020-08-15 10:27:56.138 1354.430 00:10:16
40 STEELE LOFT AU20-CORP-5040 148.476 2020-08-15 10:27:56.872 1354.344 00:10:16
41 ROCKY TOP AU20-ARPU-28106 140.998 2020-08-15 10:18:13.946 1354.329 00:09:45
42 ROCKY TOP AU20-CORP-4400 140.998 2020-08-15 10:18:15.267 1354.167 00:09:47
43 TOPIGEONUSA AU20-CORP-4863 148.159 2020-08-15 10:27:34.334 1354.085 00:10:17
44 STEELE LOFT IF20-EART-0056 148.476 2020-08-15 10:28:10.440 1352.759 00:10:30
45 STEELE LOFT AU20-BORD-20058 148.476 2020-08-15 10:29:07.523 1346.129 00:11:27
46 STEELE LOFT AU20-CORP-5021 148.476 2020-08-15 10:29:10.369 1345.800 00:11:30
47 STEELE LOFT AU20-ARPU-37452 148.476 2020-08-15 10:29:10.503 1345.785 00:11:30
48 ROCKY TOP AU20-CORP-4472 140.998 2020-08-15 10:19:27.067 1345.381 00:10:59
49 STEELE LOFT AU20-CORP-5014 148.476 2020-08-15 10:29:29.466 1343.598 00:11:49
50 TOPIGEONUSA AU20-CORP-4880 148.159 2020-08-15 10:30:02.280 1336.966 00:12:45
51 RUETER FAMILY LOFT AU20-CORP-4574 174.665 2020-08-15 11:05:06.521 1335.936 00:15:13
52 RUETER FAMILY LOFT AU20-CORP-4527 174.665 2020-08-15 11:06:05.590 1330.245 00:16:12
53 RUETER FAMILY LOFT AU20-CORP-4652 174.665 2020-08-15 11:06:20.644 1328.802 00:16:27
54 RUETER FAMILY LOFT AU20-CORP-4583 174.665 2020-08-15 11:06:24.999 1328.385 00:16:31
55 STEELE LOFT AU20-CORP-5029 148.476 2020-08-15 10:32:01.499 1326.318 00:14:21
56 AMERICAN LOFT AU20-CORP-5494 144.711 2020-08-15 10:27:07.876 1325.615 00:14:05
57 AMERICAN LOFT AU20-CORP-5556 144.711 2020-08-15 10:27:14.633 1324.839 00:14:12
58 STEELE LOFT AU20-CORP-5013 148.476 2020-08-15 10:33:29.805 1316.484 00:15:49
59 STEELE LOFT AU20-CORP-5011 148.476 2020-08-15 10:34:13.763 1311.643 00:16:33
60 RUETER FAMILY LOFT AU20-CORP-4593 174.665 2020-08-15 11:09:23.362 1311.538 00:19:30
61 RUETER FAMILY LOFT AU20-CORP-4553 174.665 2020-08-15 11:09:46.634 1309.371 00:19:53
62 ROCKY TOP AU20-CORP-4475 140.998 2020-08-15 10:24:43.010 1308.039 00:16:15
63 AMERICAN LOFT AU20-CORP-5573 144.711 2020-08-15 10:29:48.367 1307.413 00:16:46
64 AMERICAN LOFT AU20-CORP-5489 144.711 2020-08-15 10:29:52.046 1307.002 00:16:49
65 STEELE LOFT AU20-CORP-5016 148.476 2020-08-15 10:35:23.726 1304.011 00:17:43
66 STEELE LOFT AU20-CORP-5033 148.476 2020-08-15 10:35:25.445 1303.825 00:17:45
67 ROCKY TOP AU20-ARPU-28105 140.998 2020-08-15 10:25:20.328 1303.765 00:16:52
68 STEELE LOFT AU20-BORD-20063 148.476 2020-08-15 10:35:27.677 1303.583 00:17:47
69 STEELE LOFT AU20-CORP-5015 148.476 2020-08-15 10:35:27.786 1303.571 00:17:47
70 STEELE LOFT AU20-JEDD-1090 148.476 2020-08-15 10:35:29.281 1303.409 00:17:49
71 STEELE LOFT AU20-CORP-5017 148.476 2020-08-15 10:35:29.880 1303.344 00:17:49
72 STEELE LOFT IF20-EART-0053 148.476 2020-08-15 10:35:30.002 1303.331 00:17:50
73 RUETER FAMILY LOFT AU20-CORP-4579 174.665 2020-08-15 11:11:18.830 1300.857 00:21:25
74 STEELE LOFT AU20-ARPU-37461 148.476 2020-08-15 10:35:59.461 1300.147 00:18:19
75 TOPIGEONUSA AU20-CORP-5027 148.159 2020-08-15 10:35:37.842 1299.697 00:18:21
76 STEELE LOFT AU20-CORP-5041 148.476 2020-08-15 10:36:50.676 1294.649 00:19:10
77 RUETER FAMILY LOFT AU20-CORP-4580 174.665 2020-08-15 11:12:38.189 1293.616 00:22:44
78 STEELE LOFT AU20-CORP-5039 148.476 2020-08-15 10:37:10.353 1292.549 00:19:30
79 TOPIGEONUSA AU20-CORP-4841 148.159 2020-08-15 10:37:11.469 1289.666 00:19:54
80 HENDRICKSON FAMILY LOFT AU20-CORP-5265 144.79 2020-08-15 10:34:50.339 1275.177 00:21:42
81 RUETER FAMILY LOFT AU20-CORP-4569 174.665 2020-08-15 11:16:29.366 1272.977 00:26:36
82 HENDRICKSON FAMILY LOFT AU20-CORP-5253 144.79 2020-08-15 10:35:14.541 1272.608 00:22:06
83 HENDRICKSON FAMILY LOFT AU20-CORP-5278 144.79 2020-08-15 10:35:19.230 1272.111 00:22:11
84 AMERICAN LOFT AU20-CORP-5417 144.711 2020-08-15 10:35:13.771 1272.001 00:22:11
85 HENDRICKSON FAMILY LOFT AU20-CORP-5257 144.79 2020-08-15 10:35:21.831 1271.836 00:22:13
86 AMERICAN LOFT AU20-CORP-5460 144.711 2020-08-15 10:35:15.890 1271.777 00:22:13
87 AMERICAN LOFT AU20-CORP-5415 144.711 2020-08-15 10:35:17.225 1271.635 00:22:15
88 AMERICAN LOFT AU20-CORP-5433 144.711 2020-08-15 10:35:17.337 1271.623 00:22:15
89 HENDRICKSON FAMILY LOFT AU20-CORP-5266 144.79 2020-08-15 10:35:24.234 1271.582 00:22:16
90 AMERICAN LOFT AU20-CORP-5513 144.711 2020-08-15 10:35:19.040 1271.443 00:22:16
91 AMERICAN LOFT AU20-CORP-5430 144.711 2020-08-15 10:35:22.445 1271.083 00:22:20
92 AMERICAN LOFT AU20-CORP-5575 144.711 2020-08-15 10:35:25.901 1270.718 00:22:23
93 AMERICAN LOFT AU20-CORP-5466 144.711 2020-08-15 10:35:27.619 1270.536 00:22:25
94 RUETER FAMILY LOFT AU20-CORP-4661 174.665 2020-08-15 11:17:02.354 1270.085 00:27:09
95 HENDRICKSON FAMILY LOFT AU20-CORP-5288 144.79 2020-08-15 10:35:51.942 1268.658 00:22:44
96 AMERICAN LOFT AU20-CORP-5420 144.711 2020-08-15 10:35:53.860 1267.770 00:22:51
97 HENDRICKSON FAMILY LOFT AU20-CORP-5280 144.79 2020-08-15 10:36:31.997 1264.456 00:23:24
98 AMERICAN LOFT AU20-CORP-5454 144.711 2020-08-15 10:36:31.317 1263.843 00:23:29
99 HENDRICKSON FAMILY LOFT AU20-CORP-5286 144.79 2020-08-15 10:38:19.106 1253.354 00:25:11
100 AMERICAN LOFT AU20-CORP-5441 144.711 2020-08-15 10:38:13.802 1253.221 00:25:11
101 RUETER FAMILY LOFT AU20-CORP-4570 174.665 2020-08-15 11:20:18.230 1253.183 00:30:25
102 STEELE LOFT AU20-CORP-5003 148.476 2020-08-15 10:45:08.404 1243.541 00:27:28
103 RUETER FAMILY LOFT AU20-CORP-4635 174.665 2020-08-15 11:22:38.130 1241.383 00:32:44
104 HENDRICKSON FAMILY LOFT AU20-CORP-5254 144.79 2020-08-15 10:40:28.100 1240.240 00:27:20
105 STEELE LOFT AU20-CORP-5012 148.476 2020-08-15 10:46:15.602 1236.949 00:28:35
106 JACKSONS LOFT AU20-CORP-5552 119.175 2020-08-15 10:04:34.958 1236.845 00:22:58
107 JACKSONS LOFT AU20-CORP-5538 119.175 2020-08-15 10:04:36.237 1236.689 00:22:59
108 JACKSONS LOFT AU20-CORP-5470 119.175 2020-08-15 10:04:49.483 1235.081 00:23:12
109 RUETER FAMILY LOFT AU20-CORP-4682 174.665 2020-08-15 11:24:04.234 1234.230 00:34:11
110 AMERICAN LOFT AU20-CORP-5477 144.711 2020-08-15 10:41:25.638 1233.810 00:28:23
111 AMERICAN LOFT AU20-CORP-5517 144.711 2020-08-15 10:42:23.793 1228.044 00:29:21
112 TOPIGEONUSA AU20-CORP-4390 148.159 2020-08-15 10:51:45.847 1202.963 00:34:29
113 TOPIGEONUSA AU20-CORP-4374 148.159 2020-08-15 10:51:47.650 1202.796 00:34:31
114 TOPIGEONUSA AU20-CORP-4868 148.159 2020-08-15 10:51:58.930 1201.754 00:34:42
115 STEELE LOFT AU20-ARPU-37453 148.476 2020-08-15 10:52:58.460 1198.847 00:35:18
116 RUETER FAMILY LOFT AU20-CORP-4530 174.665 2020-08-15 11:32:30.234 1193.809 00:42:37
117 RUETER FAMILY LOFT AU20-CORP-4612 174.665 2020-08-15 11:33:35.636 1188.777 00:43:42
118 RUETER FAMILY LOFT AU20-CORP-4598 174.665 2020-08-15 11:33:42.415 1188.258 00:43:49
119 STEELE LOFT AU20-ARPU-37455 148.476 2020-08-15 10:55:04.498 1187.404 00:37:24
120 HENDRICKSON FAMILY LOFT AU20-CORP-5263 144.79 2020-08-15 10:51:27.226 1177.295 00:38:19
121 AMERICAN LOFT AU20-CORP-5506 144.711 2020-08-15 10:51:31.553 1176.266 00:38:29
122 AMERICAN LOFT AU20-CORP-5492 144.711 2020-08-15 10:51:31.924 1176.233 00:38:29
123 AMERICAN LOFT AU20-CORP-5434 144.711 2020-08-15 10:51:33.713 1176.071 00:38:31
124 AMERICAN LOFT AU20-CORP-5507 144.711 2020-08-15 10:51:36.291 1175.838 00:38:34
125 AMERICAN LOFT AU20-CORP-5579 144.711 2020-08-15 10:51:47.793 1174.798 00:38:45
126 TOPIGEONUSA AU20-CORP-4873 148.159 2020-08-15 10:58:32.230 1166.514 00:41:15
127 TOPIGEONUSA AU20-CORP-4383 148.159 2020-08-15 10:58:32.549 1166.486 00:41:16
128 TOPIGEONUSA AU20-CORP-4860 148.159 2020-08-15 10:58:47.575 1165.180 00:41:31
129 TOPIGEONUSA AU20-CORP-4861 148.159 2020-08-15 10:58:51.175 1164.868 00:41:34
130 TOPIGEONUSA AU20-CORP-4391 148.159 2020-08-15 10:58:53.960 1164.627 00:41:37
131 TOPIGEONUSA AU20-CORP-4875 148.159 2020-08-15 10:58:59.758 1164.124 00:41:43
132 TOPIGEONUSA AU20-CORP-4378 148.159 2020-08-15 10:59:07.030 1163.495 00:41:50
133 RUETER FAMILY LOFT AU20-CORP-4587 174.665 2020-08-15 11:40:29.168 1157.915 00:50:35
134 STEELE LOFT AU20-BORD-20064 148.476 2020-08-15 11:01:19.789 1154.589 00:43:39
135 TOPIGEONUSA AU20-CORP-4372 148.159 2020-08-15 11:01:45.514 1149.942 00:44:28
136 RUETER FAMILY LOFT AU20-CORP-4683 174.665 2020-08-15 11:43:44.539 1143.886 00:53:51
137 STEELE LOFT AU20-JEDD-1089 148.476 2020-08-15 11:06:45.564 1127.539 00:49:05
138 ROCKY TOP AU20-ARPU-28131 140.998 2020-08-15 10:55:26.118 1125.759 00:46:58
139 AMERICAN LOFT AU20-CORP-5481 144.711 2020-08-15 11:01:49.536 1122.854 00:48:47
140 AMERICAN LOFT AU20-CORP-5515 144.711 2020-08-15 11:04:21.273 1110.473 00:51:19
141 AMERICAN LOFT AU20-CORP-5502 144.711 2020-08-15 11:04:21.651 1110.443 00:51:19
142 RUETER FAMILY LOFT AU20-CORP-4529 174.665 2020-08-15 11:57:13.192 1089.259 01:07:19
143 HENDRICKSON FAMILY LOFT AU20-CORP-5270 144.79 2020-08-15 11:11:09.136 1079.092 00:58:01
144 AMERICAN LOFT AU20-CORP-5445 144.711 2020-08-15 11:11:09.544 1078.477 00:58:07
145 RUETER FAMILY LOFT AU20-CORP-4623 174.665 2020-08-15 12:00:04.506 1078.349 01:10:11
146 HENDRICKSON FAMILY LOFT IF20-EART-0005 144.79 2020-08-15 11:11:40.249 1076.727 00:58:32
147 TOPIGEONUSA AU20-CORP-4862 148.159 2020-08-15 11:17:38.782 1074.647 01:00:22
148 RUETER FAMILY LOFT AU20-CORP-4556 174.665 2020-08-15 12:01:36.291 1072.593 01:11:43
149 RUETER FAMILY LOFT AU20-CORP-4584 174.665 2020-08-15 12:01:41.636 1072.260 01:11:48
150 TOPIGEONUSA AU20-CORP-4882 148.159 2020-08-15 11:19:09.251 1068.010 01:01:52
151 TOPIGEONUSA AU20-CORP-4389 148.159 2020-08-15 11:28:14.325 1029.697 01:10:57
152 RUETER FAMILY LOFT AU20-CORP-4676 174.665 2020-08-15 12:18:31.639 1012.793 01:28:38
153 STEELE LOFT AU20-BORD-20070 148.476 2020-08-15 11:33:15.765 1011.830 01:15:35
154 STEELE LOFT AU20-CORP-5034 148.476 2020-08-15 11:33:19.907 1011.559 01:15:39
155 AMERICAN LOFT AU20-CORP-5511 144.711 2020-08-15 11:29:25.553 1001.046 01:16:23
156 AMERICAN LOFT AU20-CORP-5518 144.711 2020-08-15 11:29:26.893 1000.959 01:16:24
157 STEELE LOFT AU20-CORP-5007 148.476 2020-08-15 11:36:46.638 998.245 01:19:06
158 AMERICAN LOFT AU20-CORP-5577 144.711 2020-08-15 11:30:44.771 995.878 01:17:42
159 AMERICAN LOFT AU20-CORP-5491 144.711 2020-08-15 11:30:49.095 995.598 01:17:47
160 HENDRICKSON FAMILY LOFT AU20-CORP-5256 144.79 2020-08-15 11:31:13.835 994.534 01:18:05
161 TOPIGEONUSA AU20-CORP-4363 148.159 2020-08-15 11:40:00.764 983.949 01:22:44
162 HENDRICKSON FAMILY LOFT AU20-CORP-5283 144.79 2020-08-15 11:39:19.967 964.050 01:26:12
163 RUETER FAMILY LOFT AU20-CORP-4516 174.665 2020-08-15 12:40:19.157 944.950 01:50:25
164 STEELE LOFT AU20-CORP-5010 148.476 2020-08-15 11:53:36.860 937.920 01:35:56
165 TOPIGEONUSA AU20-CORP-4881 148.159 2020-08-15 11:53:39.273 935.779 01:36:22
166 STEELE LOFT AU20-CORP-5030 148.476 2020-08-15 12:07:01.261 894.860 01:49:21
167 AMERICAN LOFT AU20-CORP-5461 144.711 2020-08-15 12:00:00.706 893.620 01:46:58
168 TOPIGEONUSA AU20-CORP-4392 148.159 2020-08-15 12:10:40.263 881.923 01:53:23
169 RUETER FAMILY LOFT AU20-CORP-4595 174.665 2020-08-15 13:42:28.300 793.375 02:52:35
170 AMERICAN LOFT AU20-CORP-5449 144.711 2020-08-15 12:36:03.316 793.297 02:23:01
171 RUETER FAMILY LOFT AU20-CORP-4627 174.665 2020-08-15 13:42:45.438 792.791 02:52:52
172 AMERICAN LOFT AU20-CORP-5497 144.711 2020-08-15 12:43:48.335 774.598 02:30:46
173 AMERICAN LOFT AU20-CORP-5423 144.711 2020-08-15 12:43:53.811 774.383 02:30:51
174 STEELE LOFT AU20-JEDD-14774 148.476 2020-08-15 13:08:02.873 740.177 02:50:22
175 RUETER FAMILY LOFT AU20-CORP-4559 174.665 2020-08-15 14:12:37.887 736.081 03:22:44
176 RUETER FAMILY LOFT AU20-CORP-4626 174.665 2020-08-15 14:12:37.990 736.078 03:22:44
177 RUETER FAMILY LOFT AU20-CORP-4684 174.665 2020-08-15 14:12:41.178 735.984 03:22:47
178 STEELE LOFT AU20-CORP-5032 148.476 2020-08-15 13:34:51.838 687.925 03:17:11
179 TOPIGEONUSA AU20-CORP-4869 148.159 2020-08-15 13:34:51.590 686.461 03:17:35
180 TOPIGEONUSA AU20-CORP-4897 148.159 2020-08-15 13:35:42.188 684.941 03:18:25
181 TIM GRAVES AU20-CORP-4716 139.449 2020-08-15 13:18:32.421 675.112 03:11:58
182 ROCKY TOP AU20-CORP-4450 140.998 2020-08-15 13:30:39.597 660.590 03:22:11
183 STEELE LOFT AU20-CORP-5035 148.476 2020-08-15 13:54:27.742 654.174 03:36:47
184 STEELE LOFT AU20-CORP-5064 148.476 2020-08-15 13:57:02.450 649.978 03:39:22
185 AMERICAN LOFT AU20-CORP-5560 144.711 2020-08-15 13:53:04.609 639.806 03:40:02
186 RUETER FAMILY LOFT AU20-CORP-4572 174.665 2020-08-15 15:22:31.124 630.561 04:32:37
187 TOPIGEONUSA AU20-CORP-4360 148.159 2020-08-15 14:12:46.676 624.157 03:55:30
188 RUETER FAMILY LOFT AU20-CORP-4603 174.665 2020-08-15 18:22:11.165 460.757 07:32:17
189 RUETER FAMILY LOFT AU20-CORP-4545 174.665 2020-08-15 18:33:06.917 453.331 07:43:13
190 AMERICAN LOFT AU20-CORP-5479 144.711 2020-08-15 16:40:59.873 449.988 06:27:57
191 RUETER FAMILY LOFT AU20-CORP-4518 174.665 2020-08-15 18:48:27.340 443.302 07:58:34
192 RUETER FAMILY LOFT AU20-CORP-4646 174.665 2020-08-15 19:09:31.745 430.228 08:19:38
193 HENDRICKSON FAMILY LOFT AU20-CORP-5274 144.79 2020-08-15 17:34:27.496 411.376 07:21:19
194 JACKSONS LOFT AU20-CORP-5525 119.175 2020-08-15 15:57:26.768 401.472 06:15:49
195 STEELE LOFT AU20-CORP-5008 148.476 2020-08-15 18:18:36.928 393.779 08:00:56
196 ROCKY TOP AU20-TAC-2786 140.998 2020-08-15 18:00:41.817 384.324 07:52:13
197 STEELE LOFT AU20-CORP-5025 148.476 2020-08-15 18:52:08.507 374.842 08:34:28
198 HENDRICKSON FAMILY LOFT AU20-CORP-5285 144.79 2020-08-15 18:44:11.212 369.755 08:31:03
199 AMERICAN LOFT AU20-CORP-5508 144.711 2020-08-15 18:51:20.473 365.758 08:38:18
200 STEELE LOFT AU20-CORP-5004 148.476 2020-08-15 19:25:35.647 357.679 09:07:55
201 STEELE LOFT AU20-CORP-5018 148.476 2020-08-15 19:53:44.936 344.406 09:36:05
202 RUETER FAMILY LOFT AU20-CORP-4526 174.665 2020-08-16 07:24:49.056 341.232 11:25:59
203 RUETER FAMILY LOFT AU20-CORP-4648 174.665 2020-08-16 07:47:50.850 332.726 11:49:01
204 RUETER FAMILY LOFT AU20-CORP-4547 174.665 2020-08-16 08:20:42.565 321.298 12:21:53
205 RUETER FAMILY LOFT AU20-CORP-4558 174.665 2020-08-16 08:39:03.704 315.251 12:40:14
206 RUETER FAMILY LOFT AU20-CORP-4643 174.665 2020-08-16 08:44:15.435 313.581 12:45:26
207 AMERICAN LOFT AU20-CORP-5493 144.711 2020-08-16 06:41:25.000 297.023 11:19:26
208 RUETER FAMILY LOFT AU20-CORP-4649 174.665 2020-08-16 09:48:37.448 294.260 13:49:48
209 AMERICAN LOFT AU20-CORP-5448 144.711 2020-08-16 07:05:55.689 288.768 11:43:57
210 AMERICAN LOFT AU20-CORP-5458 144.711 2020-08-16 07:05:58.723 288.752 11:44:00
211 AMERICAN LOFT AU20-CORP-5452 144.711 2020-08-16 07:06:00.635 288.741 11:44:02
212 AMERICAN LOFT AU20-CORP-5519 144.711 2020-08-16 07:06:01.971 288.734 11:44:03
213 AMERICAN LOFT AU20-CORP-5554 144.711 2020-08-16 07:28:28.171 281.572 12:06:30
214 AMERICAN LOFT AU20-CORP-5565 144.711 2020-08-16 08:00:46.074 271.865 12:38:47
215 AMERICAN LOFT AU20-CORP-5563 144.711 2020-08-16 08:04:28.940 270.791 12:42:30
216 AMERICAN LOFT AU20-CORP-5516 144.711 2020-08-16 08:41:08.317 260.633 13:19:10
217 AMERICAN LOFT AU20-CORP-5510 144.711 2020-08-16 09:11:09.281 252.866 13:49:11
AMERICAN LOFT AU20-CORP-5406 0 0000-00-00 00:00:00.000 0.000 00:00:00
AMERICAN LOFT AU20-CORP-5421 0 0000-00-00 00:00:00.000 0.000 00:00:00
AMERICAN LOFT AU20-CORP-5426 0 0000-00-00 00:00:00.000 0.000 00:00:00
AMERICAN LOFT AU20-CORP-5455 0 0000-00-00 00:00:00.000 0.000 00:00:00
AMERICAN LOFT AU20-CORP-5469 0 0000-00-00 00:00:00.000 0.000 00:00:00
AMERICAN LOFT AU20-CORP-5478 0 0000-00-00 00:00:00.000 0.000 00:00:00
AMERICAN LOFT AU20-CORP-5490 0 0000-00-00 00:00:00.000 0.000 00:00:00
AMERICAN LOFT AU20-CORP-5498 0 0000-00-00 00:00:00.000 0.000 00:00:00
AMERICAN LOFT AU20-CORP-5530 0 0000-00-00 00:00:00.000 0.000 00:00:00
HENDRICKSON FAMILY LOFT AU20-CORP-5268 0 0000-00-00 00:00:00.000 0.000 00:00:00
HENDRICKSON FAMILY LOFT AU20-CORP-5289 0 0000-00-00 00:00:00.000 0.000 00:00:00
JACKSONS LOFT AU20-CORP-5526 0 0000-00-00 00:00:00.000 0.000 00:00:00
RUETER FAMILY LOFT AU20-CORP-4515 0 0000-00-00 00:00:00.000 0.000 00:00:00
RUETER FAMILY LOFT AU20-CORP-4544 0 0000-00-00 00:00:00.000 0.000 00:00:00
RUETER FAMILY LOFT AU20-CORP-4566 0 0000-00-00 00:00:00.000 0.000 00:00:00
RUETER FAMILY LOFT AU20-CORP-4658 0 0000-00-00 00:00:00.000 0.000 00:00:00
STEELE LOFT AU20-ARPU-37451 0 0000-00-00 00:00:00.000 0.000 00:00:00
STEELE LOFT AU20-CORP-5009 0 0000-00-00 00:00:00.000 0.000 00:00:00
STEELE LOFT AU20-CORP-5019 0 0000-00-00 00:00:00.000 0.000 00:00:00
STEELE LOFT AU20-PNW-2166 0 0000-00-00 00:00:00.000 0.000 00:00:00
STEELE LOFT IF20-EART-0054 0 0000-00-00 00:00:00.000 0.000 00:00:00
TOPIGEONUSA AU20-CORP-4370 0 0000-00-00 00:00:00.000 0.000 00:00:00
TOPIGEONUSA AU20-CORP-4371 0 0000-00-00 00:00:00.000 0.000 00:00:00
TOPIGEONUSA AU20-CORP-4377 0 0000-00-00 00:00:00.000 0.000 00:00:00
TOPIGEONUSA AU20-CORP-4385 0 0000-00-00 00:00:00.000 0.000 00:00:00
TOPIGEONUSA AU20-CORP-4830 0 0000-00-00 00:00:00.000 0.000 00:00:00